sensor_id;sensor_type;location;lat;lon;timestamp;temperature;humidity
55064;DHT22;40963;52.168;21.296;2024-03-22T00:01:55;7.60;99.90
55064;DHT22;40963;52.168;21.296;2024-03-22T00:04:22;7.60;99.90
55064;DHT22;40963;52.168;21.296;2024-03-22T00:06:48;7.70;99.90
55064;DHT22;40963;52.168;21.296;2024-03-22T00:09:15;7.70;99.90
55064;DHT22;40963;52.168;21.296;2024-03-22T00:11:41;7.70;99.90
55064;DHT22;40963;52.168;21.296;2024-03-22T00:14:07;7.70;99.90
55064;DHT22;40963;52.168;21.296;2024-03-22T00:16:33;7.70;99.90
55064;DHT22;40963;52.168;21.296;2024-03-22T00:18:59;7.70;99.90
55064;DHT22;40963;52.168;21.296;2024-03-22T00:21:25;7.70;99.90
55064;DHT22;40963;52.168;21.296;2024-03-22T00:23:50;7.70;99.90
55064;DHT22;40963;52.168;21.296;2024-03-22T00:26:16;7.70;99.90
55064;DHT22;40963;52.168;21.296;2024-03-22T00:28:42;7.70;99.90
55064;DHT22;40963;52.168;21.296;2024-03-22T00:31:08;7.80;99.90
55064;DHT22;40963;52.168;21.296;2024-03-22T00:33:34;7.70;99.90
55064;DHT22;40963;52.168;21.296;2024-03-22T00:35:59;7.80;99.90
55064;DHT22;40963;52.168;21.296;2024-03-22T00:38:25;7.80;99.90
55064;DHT22;40963;52.168;21.296;2024-03-22T00:40:50;7.80;99.90
55064;DHT22;40963;52.168;21.296;2024-03-22T00:43:16;7.80;99.90
55064;DHT22;40963;52.168;21.296;2024-03-22T00:45:41;7.80;99.90
55064;DHT22;40963;52.168;21.296;2024-03-22T00:48:07;7.80;99.90
55064;DHT22;40963;52.168;21.296;2024-03-22T00:50:32;7.80;99.90
55064;DHT22;40963;52.168;21.296;2024-03-22T00:52:58;7.80;99.90
55064;DHT22;40963;52.168;21.296;2024-03-22T00:55:24;7.80;99.90
55064;DHT22;40963;52.168;21.296;2024-03-22T00:57:50;7.80;99.90
55064;DHT22;40963;52.168;21.296;2024-03-22T01:00:16;7.80;99.90
55064;DHT22;40963;52.168;21.296;2024-03-22T01:02:42;7.80;99.90
55064;DHT22;40963;52.168;21.296;2024-03-22T01:05:08;7.80;99.90
55064;DHT22;40963;52.168;21.296;2024-03-22T01:07:33;7.80;99.90
55064;DHT22;40963;52.168;21.296;2024-03-22T01:09:59;7.80;99.90
55064;DHT22;40963;52.168;21.296;2024-03-22T01:12:25;7.80;99.90
55064;DHT22;40963;52.168;21.296;2024-03-22T01:14:50;7.80;99.90
55064;DHT22;40963;52.168;21.296;2024-03-22T01:17:16;7.80;99.90
55064;DHT22;40963;52.168;21.296;2024-03-22T01:19:41;7.80;99.90
55064;DHT22;40963;52.168;21.296;2024-03-22T01:22:07;7.80;99.90
55064;DHT22;40963;52.168;21.296;2024-03-22T01:24:32;7.80;99.90
55064;DHT22;40963;52.168;21.296;2024-03-22T01:26:58;7.80;99.90
55064;DHT22;40963;52.168;21.296;2024-03-22T01:29:23;7.80;99.90
55064;DHT22;40963;52.168;21.296;2024-03-22T01:31:49;7.80;99.90
55064;DHT22;40963;52.168;21.296;2024-03-22T01:34:14;7.80;99.90
55064;DHT22;40963;52.168;21.296;2024-03-22T01:36:40;7.80;99.90
55064;DHT22;40963;52.168;21.296;2024-03-22T01:39:05;7.80;99.90
55064;DHT22;40963;52.168;21.296;2024-03-22T01:41:31;7.80;99.90
55064;DHT22;40963;52.168;21.296;2024-03-22T01:43:58;7.80;99.90
55064;DHT22;40963;52.168;21.296;2024-03-22T01:46:23;7.80;99.90
55064;DHT22;40963;52.168;21.296;2024-03-22T01:48:49;7.80;99.90
55064;DHT22;40963;52.168;21.296;2024-03-22T01:51:15;7.80;99.90
55064;DHT22;40963;52.168;21.296;2024-03-22T01:53:41;7.80;99.90
55064;DHT22;40963;52.168;21.296;2024-03-22T01:56:07;7.80;99.90
55064;DHT22;40963;52.168;21.296;2024-03-22T01:58:33;7.80;99.90
55064;DHT22;40963;52.168;21.296;2024-03-22T02:00:58;7.80;99.90
55064;DHT22;40963;52.168;21.296;2024-03-22T02:03:24;7.80;99.90
55064;DHT22;40963;52.168;21.296;2024-03-22T02:05:49;7.80;99.90
55064;DHT22;40963;52.168;21.296;2024-03-22T02:08:15;7.90;99.90
55064;DHT22;40963;52.168;21.296;2024-03-22T02:10:40;7.80;99.90
55064;DHT22;40963;52.168;21.296;2024-03-22T02:13:06;7.90;99.90
55064;DHT22;40963;52.168;21.296;2024-03-22T02:15:31;7.80;99.90
55064;DHT22;40963;52.168;21.296;2024-03-22T02:17:57;7.80;99.90
55064;DHT22;40963;52.168;21.296;2024-03-22T02:20:22;7.80;99.90
55064;DHT22;40963;52.168;21.296;2024-03-22T02:22:48;7.80;99.90
55064;DHT22;40963;52.168;21.296;2024-03-22T02:25:13;7.80;99.90
55064;DHT22;40963;52.168;21.296;2024-03-22T02:27:39;7.80;99.90
55064;DHT22;40963;52.168;21.296;2024-03-22T02:30:05;7.80;99.90
55064;DHT22;40963;52.168;21.296;2024-03-22T02:32:31;7.80;99.90
55064;DHT22;40963;52.168;21.296;2024-03-22T02:34:56;7.80;99.90
55064;DHT22;40963;52.168;21.296;2024-03-22T02:37:22;7.90;99.90
55064;DHT22;40963;52.168;21.296;2024-03-22T02:39:47;7.80;99.90
55064;DHT22;40963;52.168;21.296;2024-03-22T02:42:13;7.80;99.90
55064;DHT22;40963;52.168;21.296;2024-03-22T02:44:38;7.90;99.90
55064;DHT22;40963;52.168;21.296;2024-03-22T02:47:11;7.80;99.90
55064;DHT22;40963;52.168;21.296;2024-03-22T02:49:38;7.90;99.90
55064;DHT22;40963;52.168;21.296;2024-03-22T02:52:04;7.90;99.90
55064;DHT22;40963;52.168;21.296;2024-03-22T02:54:30;7.90;99.90
55064;DHT22;40963;52.168;21.296;2024-03-22T02:56:55;7.90;99.90
55064;DHT22;40963;52.168;21.296;2024-03-22T02:59:21;7.90;99.90
55064;DHT22;40963;52.168;21.296;2024-03-22T03:01:46;7.90;99.90
55064;DHT22;40963;52.168;21.296;2024-03-22T03:04:12;7.90;99.90
55064;DHT22;40963;52.168;21.296;2024-03-22T03:06:37;7.90;99.90
55064;DHT22;40963;52.168;21.296;2024-03-22T03:09:03;7.90;99.90
55064;DHT22;40963;52.168;21.296;2024-03-22T03:11:32;7.90;99.90
55064;DHT22;40963;52.168;21.296;2024-03-22T03:13:58;7.90;99.90
55064;DHT22;40963;52.168;21.296;2024-03-22T03:16:23;7.90;99.90
55064;DHT22;40963;52.168;21.296;2024-03-22T03:18:49;7.90;99.90
55064;DHT22;40963;52.168;21.296;2024-03-22T03:21:15;7.90;99.90
55064;DHT22;40963;52.168;21.296;2024-03-22T03:23:40;8.00;99.90
55064;DHT22;40963;52.168;21.296;2024-03-22T03:26:06;7.90;99.90
55064;DHT22;40963;52.168;21.296;2024-03-22T03:28:31;7.90;99.90
55064;DHT22;40963;52.168;21.296;2024-03-22T03:30:57;7.90;99.90
55064;DHT22;40963;52.168;21.296;2024-03-22T03:33:23;7.90;99.90
55064;DHT22;40963;52.168;21.296;2024-03-22T03:35:48;7.90;99.90
55064;DHT22;40963;52.168;21.296;2024-03-22T03:38:14;7.90;99.90
55064;DHT22;40963;52.168;21.296;2024-03-22T03:40:39;7.90;99.90
55064;DHT22;40963;52.168;21.296;2024-03-22T03:43:05;7.90;99.90
55064;DHT22;40963;52.168;21.296;2024-03-22T03:45:30;7.90;99.90
55064;DHT22;40963;52.168;21.296;2024-03-22T03:47:56;7.90;99.90
55064;DHT22;40963;52.168;21.296;2024-03-22T03:50:21;7.90;99.90
55064;DHT22;40963;52.168;21.296;2024-03-22T03:52:47;7.90;99.90
55064;DHT22;40963;52.168;21.296;2024-03-22T03:55:13;7.90;99.90
55064;DHT22;40963;52.168;21.296;2024-03-22T03:57:38;7.90;99.90
55064;DHT22;40963;52.168;21.296;2024-03-22T04:00:04;7.90;99.90
55064;DHT22;40963;52.168;21.296;2024-03-22T04:02:30;7.90;99.90
55064;DHT22;40963;52.168;21.296;2024-03-22T04:04:56;7.90;99.90
55064;DHT22;40963;52.168;21.296;2024-03-22T04:07:21;7.90;99.90
55064;DHT22;40963;52.168;21.296;2024-03-22T04:09:47;7.90;99.90
55064;DHT22;40963;52.168;21.296;2024-03-22T04:12:12;7.90;99.90
55064;DHT22;40963;52.168;21.296;2024-03-22T04:14:38;7.80;99.90
55064;DHT22;40963;52.168;21.296;2024-03-22T04:17:04;7.80;99.90
55064;DHT22;40963;52.168;21.296;2024-03-22T04:19:29;7.80;99.90
55064;DHT22;40963;52.168;21.296;2024-03-22T04:21:55;7.80;99.90
55064;DHT22;40963;52.168;21.296;2024-03-22T04:24:20;7.70;99.90
55064;DHT22;40963;52.168;21.296;2024-03-22T04:26:46;7.70;99.90
55064;DHT22;40963;52.168;21.296;2024-03-22T04:29:11;7.70;99.90
55064;DHT22;40963;52.168;21.296;2024-03-22T04:31:37;7.60;99.90
55064;DHT22;40963;52.168;21.296;2024-03-22T04:34:02;7.60;99.90
55064;DHT22;40963;52.168;21.296;2024-03-22T04:36:28;7.60;99.90
55064;DHT22;40963;52.168;21.296;2024-03-22T04:38:53;7.60;99.90
55064;DHT22;40963;52.168;21.296;2024-03-22T04:41:19;7.50;99.90
55064;DHT22;40963;52.168;21.296;2024-03-22T04:43:44;7.50;99.90
55064;DHT22;40963;52.168;21.296;2024-03-22T04:46:10;7.50;99.90
55064;DHT22;40963;52.168;21.296;2024-03-22T04:48:35;7.50;99.90
55064;DHT22;40963;52.168;21.296;2024-03-22T04:51:01;7.50;99.90
55064;DHT22;40963;52.168;21.296;2024-03-22T04:53:26;7.40;99.90
55064;DHT22;40963;52.168;21.296;2024-03-22T04:55:52;7.40;99.90
55064;DHT22;40963;52.168;21.296;2024-03-22T04:58:19;7.40;99.90
55064;DHT22;40963;52.168;21.296;2024-03-22T05:00:46;7.40;99.90
55064;DHT22;40963;52.168;21.296;2024-03-22T05:03:11;7.40;99.90
55064;DHT22;40963;52.168;21.296;2024-03-22T05:05:38;7.40;99.90
55064;DHT22;40963;52.168;21.296;2024-03-22T05:08:04;7.40;99.90
55064;DHT22;40963;52.168;21.296;2024-03-22T05:10:30;7.40;99.90
55064;DHT22;40963;52.168;21.296;2024-03-22T05:12:56;7.30;99.90
55064;DHT22;40963;52.168;21.296;2024-03-22T05:15:21;7.30;99.90
55064;DHT22;40963;52.168;21.296;2024-03-22T05:17:47;7.30;99.90
55064;DHT22;40963;52.168;21.296;2024-03-22T05:20:13;7.30;99.90
55064;DHT22;40963;52.168;21.296;2024-03-22T05:22:39;7.30;99.90
55064;DHT22;40963;52.168;21.296;2024-03-22T05:25:05;7.30;99.90
55064;DHT22;40963;52.168;21.296;2024-03-22T05:27:31;7.30;99.90
55064;DHT22;40963;52.168;21.296;2024-03-22T05:29:56;7.30;99.90
55064;DHT22;40963;52.168;21.296;2024-03-22T05:32:22;7.30;99.90
55064;DHT22;40963;52.168;21.296;2024-03-22T05:34:47;7.30;99.90
55064;DHT22;40963;52.168;21.296;2024-03-22T05:37:13;7.30;99.90
55064;DHT22;40963;52.168;21.296;2024-03-22T05:39:38;7.30;99.90
55064;DHT22;40963;52.168;21.296;2024-03-22T05:42:05;7.30;99.90
55064;DHT22;40963;52.168;21.296;2024-03-22T05:44:31;7.30;99.90
55064;DHT22;40963;52.168;21.296;2024-03-22T05:46:57;7.30;99.90
55064;DHT22;40963;52.168;21.296;2024-03-22T05:49:22;7.30;99.90
55064;DHT22;40963;52.168;21.296;2024-03-22T05:51:48;7.30;99.90
55064;DHT22;40963;52.168;21.296;2024-03-22T05:54:14;7.40;99.90
55064;DHT22;40963;52.168;21.296;2024-03-22T05:56:39;7.40;99.90
55064;DHT22;40963;52.168;21.296;2024-03-22T05:59:05;7.40;99.90
55064;DHT22;40963;52.168;21.296;2024-03-22T06:01:32;7.40;99.90
55064;DHT22;40963;52.168;21.296;2024-03-22T06:03:57;7.40;99.90
55064;DHT22;40963;52.168;21.296;2024-03-22T06:06:23;7.40;99.90
55064;DHT22;40963;52.168;21.296;2024-03-22T06:08:51;7.50;99.90
55064;DHT22;40963;52.168;21.296;2024-03-22T06:11:22;7.50;99.90
55064;DHT22;40963;52.168;21.296;2024-03-22T06:13:47;7.50;99.90
55064;DHT22;40963;52.168;21.296;2024-03-22T06:16:13;7.50;99.90
55064;DHT22;40963;52.168;21.296;2024-03-22T06:18:39;7.50;99.90
55064;DHT22;40963;52.168;21.296;2024-03-22T06:21:05;7.60;99.90
55064;DHT22;40963;52.168;21.296;2024-03-22T06:23:32;7.60;99.90
55064;DHT22;40963;52.168;21.296;2024-03-22T06:25:58;7.60;99.90
55064;DHT22;40963;52.168;21.296;2024-03-22T06:28:25;7.70;99.90
55064;DHT22;40963;52.168;21.296;2024-03-22T06:30:50;7.60;99.90
55064;DHT22;40963;52.168;21.296;2024-03-22T06:33:16;7.70;99.90
55064;DHT22;40963;52.168;21.296;2024-03-22T06:35:42;7.70;99.90
55064;DHT22;40963;52.168;21.296;2024-03-22T06:38:07;7.70;99.90
55064;DHT22;40963;52.168;21.296;2024-03-22T06:40:33;7.70;99.90
55064;DHT22;40963;52.168;21.296;2024-03-22T06:42:59;7.80;99.90
55064;DHT22;40963;52.168;21.296;2024-03-22T06:45:24;7.80;99.90
55064;DHT22;40963;52.168;21.296;2024-03-22T06:47:50;7.80;99.90
55064;DHT22;40963;52.168;21.296;2024-03-22T06:50:16;7.80;99.90
55064;DHT22;40963;52.168;21.296;2024-03-22T06:52:50;7.80;99.90
55064;DHT22;40963;52.168;21.296;2024-03-22T06:55:15;7.90;99.90
55064;DHT22;40963;52.168;21.296;2024-03-22T06:57:41;7.90;99.90
55064;DHT22;40963;52.168;21.296;2024-03-22T07:00:07;7.90;99.90
55064;DHT22;40963;52.168;21.296;2024-03-22T07:02:35;7.90;99.90
55064;DHT22;40963;52.168;21.296;2024-03-22T07:05:00;7.90;99.90
55064;DHT22;40963;52.168;21.296;2024-03-22T07:07:26;7.90;99.90
55064;DHT22;40963;52.168;21.296;2024-03-22T07:09:51;7.90;99.90
55064;DHT22;40963;52.168;21.296;2024-03-22T07:12:17;7.90;99.90
55064;DHT22;40963;52.168;21.296;2024-03-22T07:14:42;7.90;99.90
55064;DHT22;40963;52.168;21.296;2024-03-22T07:17:08;8.00;99.90
55064;DHT22;40963;52.168;21.296;2024-03-22T07:19:33;8.00;99.90
55064;DHT22;40963;52.168;21.296;2024-03-22T07:22:00;8.00;99.90
55064;DHT22;40963;52.168;21.296;2024-03-22T07:24:31;8.00;99.90
55064;DHT22;40963;52.168;21.296;2024-03-22T07:27:00;8.10;99.90
55064;DHT22;40963;52.168;21.296;2024-03-22T07:29:26;8.10;99.90
55064;DHT22;40963;52.168;21.296;2024-03-22T07:31:51;8.10;99.90
55064;DHT22;40963;52.168;21.296;2024-03-22T07:34:17;8.20;99.90
55064;DHT22;40963;52.168;21.296;2024-03-22T07:36:42;8.20;99.90
55064;DHT22;40963;52.168;21.296;2024-03-22T07:39:08;8.20;99.90
55064;DHT22;40963;52.168;21.296;2024-03-22T07:41:33;8.10;99.90
55064;DHT22;40963;52.168;21.296;2024-03-22T07:44:02;8.20;99.90
55064;DHT22;40963;52.168;21.296;2024-03-22T07:46:28;8.20;99.90
55064;DHT22;40963;52.168;21.296;2024-03-22T07:48:54;8.20;99.90
55064;DHT22;40963;52.168;21.296;2024-03-22T07:51:22;8.20;99.90
55064;DHT22;40963;52.168;21.296;2024-03-22T07:53:48;8.30;99.90
55064;DHT22;40963;52.168;21.296;2024-03-22T07:56:14;8.30;99.90
55064;DHT22;40963;52.168;21.296;2024-03-22T07:58:41;8.30;99.90
55064;DHT22;40963;52.168;21.296;2024-03-22T08:01:06;8.30;99.90
55064;DHT22;40963;52.168;21.296;2024-03-22T08:03:32;8.30;99.90
55064;DHT22;40963;52.168;21.296;2024-03-22T08:05:57;8.30;99.90
55064;DHT22;40963;52.168;21.296;2024-03-22T08:08:23;8.20;99.90
55064;DHT22;40963;52.168;21.296;2024-03-22T08:10:48;8.20;99.90
55064;DHT22;40963;52.168;21.296;2024-03-22T08:13:14;8.20;99.90
55064;DHT22;40963;52.168;21.296;2024-03-22T08:15:40;8.20;99.90
55064;DHT22;40963;52.168;21.296;2024-03-22T08:18:06;8.20;99.90
55064;DHT22;40963;52.168;21.296;2024-03-22T08:20:31;8.20;99.90
55064;DHT22;40963;52.168;21.296;2024-03-22T08:22:59;8.20;99.90
55064;DHT22;40963;52.168;21.296;2024-03-22T08:25:24;8.30;99.90
55064;DHT22;40963;52.168;21.296;2024-03-22T08:27:50;8.40;99.90
55064;DHT22;40963;52.168;21.296;2024-03-22T08:30:18;8.40;99.90
55064;DHT22;40963;52.168;21.296;2024-03-22T08:32:43;8.30;99.90
55064;DHT22;40963;52.168;21.296;2024-03-22T08:35:09;8.40;99.90
55064;DHT22;40963;52.168;21.296;2024-03-22T08:37:34;8.40;99.90
55064;DHT22;40963;52.168;21.296;2024-03-22T08:40:00;8.40;99.90
55064;DHT22;40963;52.168;21.296;2024-03-22T08:42:25;8.40;99.90
55064;DHT22;40963;52.168;21.296;2024-03-22T08:44:51;8.40;99.90
55064;DHT22;40963;52.168;21.296;2024-03-22T08:47:16;8.40;99.90
55064;DHT22;40963;52.168;21.296;2024-03-22T08:49:41;8.40;99.90
55064;DHT22;40963;52.168;21.296;2024-03-22T08:52:09;8.40;99.90
55064;DHT22;40963;52.168;21.296;2024-03-22T08:54:35;8.40;99.90
55064;DHT22;40963;52.168;21.296;2024-03-22T08:57:00;8.40;99.90
55064;DHT22;40963;52.168;21.296;2024-03-22T08:59:27;8.40;99.90
55064;DHT22;40963;52.168;21.296;2024-03-22T09:01:52;8.40;99.90
55064;DHT22;40963;52.168;21.296;2024-03-22T09:04:18;8.40;99.90
55064;DHT22;40963;52.168;21.296;2024-03-22T09:06:43;8.50;99.90
55064;DHT22;40963;52.168;21.296;2024-03-22T09:09:10;8.50;99.90
55064;DHT22;40963;52.168;21.296;2024-03-22T09:11:36;8.50;99.90
55064;DHT22;40963;52.168;21.296;2024-03-22T09:14:02;8.50;99.90
55064;DHT22;40963;52.168;21.296;2024-03-22T09:16:27;8.50;99.90
55064;DHT22;40963;52.168;21.296;2024-03-22T09:18:53;8.50;99.90
55064;DHT22;40963;52.168;21.296;2024-03-22T09:21:18;8.50;99.90
55064;DHT22;40963;52.168;21.296;2024-03-22T09:23:44;8.50;99.90
55064;DHT22;40963;52.168;21.296;2024-03-22T09:26:09;8.50;99.90
55064;DHT22;40963;52.168;21.296;2024-03-22T09:28:35;8.50;99.90
55064;DHT22;40963;52.168;21.296;2024-03-22T09:31:04;8.50;99.90
55064;DHT22;40963;52.168;21.296;2024-03-22T09:33:32;8.50;99.90
55064;DHT22;40963;52.168;21.296;2024-03-22T09:35:57;8.40;99.90
55064;DHT22;40963;52.168;21.296;2024-03-22T09:38:23;8.50;99.90
55064;DHT22;40963;52.168;21.296;2024-03-22T09:40:48;8.50;99.90
55064;DHT22;40963;52.168;21.296;2024-03-22T09:43:20;8.50;99.90
55064;DHT22;40963;52.168;21.296;2024-03-22T09:45:47;8.50;99.90
55064;DHT22;40963;52.168;21.296;2024-03-22T09:48:14;8.60;99.90
55064;DHT22;40963;52.168;21.296;2024-03-22T09:50:40;8.60;99.90
55064;DHT22;40963;52.168;21.296;2024-03-22T09:53:06;8.60;99.90
55064;DHT22;40963;52.168;21.296;2024-03-22T09:55:33;8.60;99.90
55064;DHT22;40963;52.168;21.296;2024-03-22T09:58:00;8.70;99.90
55064;DHT22;40963;52.168;21.296;2024-03-22T10:00:27;8.80;99.90
55064;DHT22;40963;52.168;21.296;2024-03-22T10:02:53;8.90;99.90
55064;DHT22;40963;52.168;21.296;2024-03-22T10:05:19;9.00;99.90
55064;DHT22;40963;52.168;21.296;2024-03-22T10:07:44;9.00;99.90
55064;DHT22;40963;52.168;21.296;2024-03-22T10:10:10;9.00;99.90
55064;DHT22;40963;52.168;21.296;2024-03-22T10:12:36;8.90;99.90
55064;DHT22;40963;52.168;21.296;2024-03-22T10:15:02;8.90;99.90
55064;DHT22;40963;52.168;21.296;2024-03-22T10:17:29;8.90;99.90
55064;DHT22;40963;52.168;21.296;2024-03-22T10:19:54;8.90;99.90
55064;DHT22;40963;52.168;21.296;2024-03-22T10:22:20;8.90;99.90
55064;DHT22;40963;52.168;21.296;2024-03-22T10:24:46;8.90;99.90
55064;DHT22;40963;52.168;21.296;2024-03-22T10:27:11;9.00;99.90
55064;DHT22;40963;52.168;21.296;2024-03-22T10:29:37;8.90;99.90
55064;DHT22;40963;52.168;21.296;2024-03-22T10:32:03;8.90;99.90
55064;DHT22;40963;52.168;21.296;2024-03-22T10:34:29;8.90;99.90
55064;DHT22;40963;52.168;21.296;2024-03-22T10:37:00;9.00;99.90
55064;DHT22;40963;52.168;21.296;2024-03-22T10:39:26;9.00;99.90
55064;DHT22;40963;52.168;21.296;2024-03-22T10:41:52;9.10;99.90
55064;DHT22;40963;52.168;21.296;2024-03-22T10:44:18;9.10;99.90
55064;DHT22;40963;52.168;21.296;2024-03-22T10:46:48;9.20;99.90
55064;DHT22;40963;52.168;21.296;2024-03-22T10:49:18;9.10;99.90
55064;DHT22;40963;52.168;21.296;2024-03-22T10:51:47;9.10;99.90
55064;DHT22;40963;52.168;21.296;2024-03-22T10:54:18;9.10;99.90
55064;DHT22;40963;52.168;21.296;2024-03-22T10:56:44;9.10;99.90
55064;DHT22;40963;52.168;21.296;2024-03-22T10:59:14;9.10;99.90
55064;DHT22;40963;52.168;21.296;2024-03-22T11:01:44;9.10;99.90
55064;DHT22;40963;52.168;21.296;2024-03-22T11:04:10;9.10;99.90
55064;DHT22;40963;52.168;21.296;2024-03-22T11:06:38;9.10;99.90
55064;DHT22;40963;52.168;21.296;2024-03-22T11:09:04;9.10;99.90
55064;DHT22;40963;52.168;21.296;2024-03-22T11:11:30;9.10;99.90
55064;DHT22;40963;52.168;21.296;2024-03-22T11:14:03;9.10;99.90
55064;DHT22;40963;52.168;21.296;2024-03-22T11:16:28;9.20;99.90
55064;DHT22;40963;52.168;21.296;2024-03-22T11:18:55;9.20;99.90
55064;DHT22;40963;52.168;21.296;2024-03-22T11:21:20;9.20;99.90
55064;DHT22;40963;52.168;21.296;2024-03-22T11:23:46;9.30;99.90
55064;DHT22;40963;52.168;21.296;2024-03-22T11:26:12;9.30;99.90
55064;DHT22;40963;52.168;21.296;2024-03-22T11:28:38;9.20;99.90
55064;DHT22;40963;52.168;21.296;2024-03-22T11:31:04;9.30;99.90
55064;DHT22;40963;52.168;21.296;2024-03-22T11:33:30;9.30;99.90
55064;DHT22;40963;52.168;21.296;2024-03-22T11:35:58;9.30;99.90
55064;DHT22;40963;52.168;21.296;2024-03-22T11:38:26;9.40;99.90
55064;DHT22;40963;52.168;21.296;2024-03-22T11:40:52;9.40;99.90
55064;DHT22;40963;52.168;21.296;2024-03-22T11:43:18;9.50;99.90
55064;DHT22;40963;52.168;21.296;2024-03-22T11:45:44;9.40;99.90
55064;DHT22;40963;52.168;21.296;2024-03-22T11:48:10;9.40;99.90
55064;DHT22;40963;52.168;21.296;2024-03-22T11:50:38;9.40;99.90
55064;DHT22;40963;52.168;21.296;2024-03-22T11:53:07;9.40;99.90
55064;DHT22;40963;52.168;21.296;2024-03-22T11:55:35;9.40;99.90
55064;DHT22;40963;52.168;21.296;2024-03-22T11:58:01;9.40;99.90
55064;DHT22;40963;52.168;21.296;2024-03-22T12:00:27;9.40;99.90
55064;DHT22;40963;52.168;21.296;2024-03-22T12:02:53;9.40;99.90
55064;DHT22;40963;52.168;21.296;2024-03-22T12:05:20;9.50;99.90
55064;DHT22;40963;52.168;21.296;2024-03-22T12:07:45;9.40;99.90
55064;DHT22;40963;52.168;21.296;2024-03-22T12:10:11;9.40;99.90
55064;DHT22;40963;52.168;21.296;2024-03-22T12:12:37;9.40;99.90
55064;DHT22;40963;52.168;21.296;2024-03-22T12:15:03;9.30;99.90
55064;DHT22;40963;52.168;21.296;2024-03-22T12:17:29;9.40;99.90
55064;DHT22;40963;52.168;21.296;2024-03-22T12:19:55;9.30;99.90
55064;DHT22;40963;52.168;21.296;2024-03-22T12:22:22;9.40;99.90
55064;DHT22;40963;52.168;21.296;2024-03-22T12:24:47;9.40;99.90
55064;DHT22;40963;52.168;21.296;2024-03-22T12:27:13;9.40;99.90
55064;DHT22;40963;52.168;21.296;2024-03-22T12:29:38;9.40;99.90
55064;DHT22;40963;52.168;21.296;2024-03-22T12:32:04;9.50;99.90
55064;DHT22;40963;52.168;21.296;2024-03-22T12:34:30;9.50;99.90
55064;DHT22;40963;52.168;21.296;2024-03-22T12:36:57;9.50;99.90
55064;DHT22;40963;52.168;21.296;2024-03-22T12:39:24;9.50;99.90
55064;DHT22;40963;52.168;21.296;2024-03-22T12:41:49;9.50;99.90
55064;DHT22;40963;52.168;21.296;2024-03-22T12:44:15;9.50;99.90
55064;DHT22;40963;52.168;21.296;2024-03-22T12:46:40;9.60;99.90
55064;DHT22;40963;52.168;21.296;2024-03-22T12:49:10;9.60;99.90
55064;DHT22;40963;52.168;21.296;2024-03-22T12:51:36;9.70;99.90
55064;DHT22;40963;52.168;21.296;2024-03-22T12:54:02;9.70;99.90
55064;DHT22;40963;52.168;21.296;2024-03-22T12:56:28;9.80;99.90
55064;DHT22;40963;52.168;21.296;2024-03-22T12:58:53;9.70;99.90
55064;DHT22;40963;52.168;21.296;2024-03-22T13:01:19;9.70;99.90
55064;DHT22;40963;52.168;21.296;2024-03-22T13:03:45;9.80;99.90
55064;DHT22;40963;52.168;21.296;2024-03-22T13:06:12;9.80;99.90
55064;DHT22;40963;52.168;21.296;2024-03-22T13:08:37;9.80;99.90
55064;DHT22;40963;52.168;21.296;2024-03-22T13:11:04;9.90;99.90
55064;DHT22;40963;52.168;21.296;2024-03-22T13:13:29;9.90;99.90
55064;DHT22;40963;52.168;21.296;2024-03-22T13:15:57;9.90;99.90
55064;DHT22;40963;52.168;21.296;2024-03-22T13:18:23;9.90;99.90
55064;DHT22;40963;52.168;21.296;2024-03-22T13:20:49;9.90;99.90
55064;DHT22;40963;52.168;21.296;2024-03-22T13:23:14;9.90;99.90
55064;DHT22;40963;52.168;21.296;2024-03-22T13:25:40;10.00;99.90
55064;DHT22;40963;52.168;21.296;2024-03-22T13:28:05;10.00;99.90
55064;DHT22;40963;52.168;21.296;2024-03-22T13:30:32;10.00;99.90
55064;DHT22;40963;52.168;21.296;2024-03-22T13:32:58;10.00;99.90
55064;DHT22;40963;52.168;21.296;2024-03-22T13:35:24;10.00;99.90
55064;DHT22;40963;52.168;21.296;2024-03-22T13:37:49;10.00;99.90
55064;DHT22;40963;52.168;21.296;2024-03-22T13:40:16;10.00;99.90
55064;DHT22;40963;52.168;21.296;2024-03-22T13:42:41;10.00;99.90
55064;DHT22;40963;52.168;21.296;2024-03-22T13:45:07;10.00;99.90
55064;DHT22;40963;52.168;21.296;2024-03-22T13:47:33;10.00;99.90
55064;DHT22;40963;52.168;21.296;2024-03-22T13:49:59;10.00;99.90
55064;DHT22;40963;52.168;21.296;2024-03-22T13:52:24;10.10;99.90
55064;DHT22;40963;52.168;21.296;2024-03-22T13:54:51;10.10;99.90
55064;DHT22;40963;52.168;21.296;2024-03-22T13:57:16;10.20;99.90
55064;DHT22;40963;52.168;21.296;2024-03-22T13:59:42;10.20;99.90
55064;DHT22;40963;52.168;21.296;2024-03-22T14:02:08;10.20;99.90
55064;DHT22;40963;52.168;21.296;2024-03-22T14:04:34;10.30;99.90
55064;DHT22;40963;52.168;21.296;2024-03-22T14:07:00;10.30;99.90
55064;DHT22;40963;52.168;21.296;2024-03-22T14:09:33;10.30;99.90
55064;DHT22;40963;52.168;21.296;2024-03-22T14:11:58;10.30;99.90
55064;DHT22;40963;52.168;21.296;2024-03-22T14:14:25;10.30;99.90
55064;DHT22;40963;52.168;21.296;2024-03-22T14:16:51;10.30;99.90
55064;DHT22;40963;52.168;21.296;2024-03-22T14:19:17;10.30;99.90
55064;DHT22;40963;52.168;21.296;2024-03-22T14:21:44;10.20;99.90
55064;DHT22;40963;52.168;21.296;2024-03-22T14:24:10;10.30;99.90
55064;DHT22;40963;52.168;21.296;2024-03-22T14:26:36;10.30;99.90
55064;DHT22;40963;52.168;21.296;2024-03-22T14:29:07;10.30;99.90
55064;DHT22;40963;52.168;21.296;2024-03-22T14:31:34;10.30;99.90
55064;DHT22;40963;52.168;21.296;2024-03-22T14:33:59;10.20;99.90
55064;DHT22;40963;52.168;21.296;2024-03-22T14:36:25;10.30;99.90
55064;DHT22;40963;52.168;21.296;2024-03-22T14:38:50;10.30;99.90
55064;DHT22;40963;52.168;21.296;2024-03-22T14:41:16;10.30;99.90
55064;DHT22;40963;52.168;21.296;2024-03-22T14:43:42;10.30;99.90
55064;DHT22;40963;52.168;21.296;2024-03-22T14:46:07;10.30;99.90
55064;DHT22;40963;52.168;21.296;2024-03-22T14:48:33;10.30;99.90
55064;DHT22;40963;52.168;21.296;2024-03-22T14:50:58;10.40;99.90
55064;DHT22;40963;52.168;21.296;2024-03-22T14:53:24;10.40;99.90
55064;DHT22;40963;52.168;21.296;2024-03-22T14:58:20;10.50;99.90
55064;DHT22;40963;52.168;21.296;2024-03-22T15:01:04;10.40;99.90
55064;DHT22;40963;52.168;21.296;2024-03-22T15:03:31;10.40;99.90
55064;DHT22;40963;52.168;21.296;2024-03-22T15:05:58;10.40;99.90
55064;DHT22;40963;52.168;21.296;2024-03-22T15:08:25;10.40;99.90
55064;DHT22;40963;52.168;21.296;2024-03-22T15:10:51;10.40;99.90
55064;DHT22;40963;52.168;21.296;2024-03-22T15:13:17;10.40;99.90
55064;DHT22;40963;52.168;21.296;2024-03-22T15:15:52;10.40;99.90
55064;DHT22;40963;52.168;21.296;2024-03-22T15:18:17;10.40;99.90
55064;DHT22;40963;52.168;21.296;2024-03-22T15:20:43;10.40;99.90
55064;DHT22;40963;52.168;21.296;2024-03-22T15:23:08;10.40;99.90
55064;DHT22;40963;52.168;21.296;2024-03-22T15:25:34;10.40;99.90